Time;durP1;ratioP1;P1;durP2;ratioP2;P2;SDS_P1;SDS_P2;PMS_P1;PMS_P2;Temp;Humidity;BMP_temperature;BMP_pressure;BME280_temperature;BME280_humidity;BME280_pressure;Samples;Min_cycle;Max_cycle;Signal;HPM_P1;HPM_P2
2022/06/21 00:01:00;;;;;;;0.10;0.10;;;;;;;;;;5027515;28;20696;-75
2022/06/21 00:03:27;;;;;;;0.00;0.00;;;;;;;;;;5030656;28;20225;-75
2022/06/21 00:05:55;;;;;;;0.00;0.00;;;;;;;;;;5026262;28;20218;-75
2022/06/21 00:08:25;;;;;;;0.10;0.10;;;;;;;;;;5029427;28;20207;-75
2022/06/21 00:10:52;;;;;;;0.00;0.00;;;;;;;;;;5044493;28;20842;-75
2022/06/21 00:13:22;;;;;;;0.00;0.00;;;;;;;;;;5029972;28;20223;-75
2022/06/21 00:15:50;;;;;;;0.00;0.00;;;;;;;;;;5030108;28;20207;-74
2022/06/21 00:18:21;;;;;;;0.00;0.00;;;;;;;;;;5028759;28;20780;-74
2022/06/21 00:20:48;;;;;;;0.00;0.00;;;;;;;;;;5028797;28;20207;-75
2022/06/21 00:23:17;;;;;;;0.00;0.00;;;;;;;;;;5043350;28;20224;-75
2022/06/21 00:25:46;;;;;;;0.00;0.00;;;;;;;;;;5026797;28;20204;-75
2022/06/21 00:28:14;;;;;;;0.00;0.00;;;;;;;;;;5047612;28;20724;-75
2022/06/21 00:30:43;;;;;;;0.00;0.00;;;;;;;;;;5046116;28;20206;-75
2022/06/21 00:33:12;;;;;;;0.00;0.00;;;;;;;;;;5028273;28;20233;-75
2022/06/21 00:35:41;;;;;;;0.00;0.00;;;;;;;;;;5025168;28;20286;-75
2022/06/21 00:38:11;;;;;;;0.00;0.00;;;;;;;;;;5029128;28;20230;-75
2022/06/21 00:40:39;;;;;;;0.00;0.00;;;;;;;;;;5029815;28;20191;-76
2022/06/21 00:43:09;;;;;;;0.00;0.00;;;;;;;;;;5022011;28;20314;-75
2022/06/21 00:45:37;;;;;;;0.00;0.00;;;;;;;;;;5047990;28;20196;-76
2022/06/21 00:48:12;;;;;;;0.00;0.00;;;;;;;;;;5044529;28;20199;-75
2022/06/21 00:50:41;;;;;;;0.00;0.00;;;;;;;;;;5041241;28;20270;-75
2022/06/21 00:53:13;;;;;;;0.00;0.00;;;;;;;;;;5017231;28;20793;-75
2022/06/21 00:55:43;;;;;;;0.00;0.00;;;;;;;;;;5036972;28;20207;-75
2022/06/21 00:58:12;;;;;;;0.00;0.00;;;;;;;;;;5040813;28;20227;-75
2022/06/21 01:00:43;;;;;;;0.00;0.00;;;;;;;;;;5041078;28;20732;-74
2022/06/21 01:03:14;;;;;;;0.00;0.00;;;;;;;;;;5047572;28;20230;-74
2022/06/21 01:05:44;;;;;;;0.00;0.00;;;;;;;;;;5036569;28;20289;-75
2022/06/21 01:08:12;;;;;;;0.00;0.00;;;;;;;;;;5029643;28;20207;-75
2022/06/21 01:10:40;;;;;;;0.00;0.00;;;;;;;;;;5021228;28;20849;-75
2022/06/21 01:13:11;;;;;;;0.00;0.00;;;;;;;;;;5045415;28;20265;-75
2022/06/21 01:15:40;;;;;;;0.00;0.00;;;;;;;;;;5047646;28;20210;-75
2022/06/21 01:18:09;;;;;;;0.00;0.00;;;;;;;;;;5029466;28;20744;-75
2022/06/21 01:20:40;;;;;;;0.00;0.00;;;;;;;;;;5026025;28;20204;-75
2022/06/21 01:23:13;;;;;;;0.00;0.00;;;;;;;;;;5023162;28;20239;-75
2022/06/21 01:25:45;;;;;;;0.00;0.00;;;;;;;;;;5042281;28;20226;-75
2022/06/21 01:28:13;;;;;;;0.00;0.00;;;;;;;;;;5028750;28;20761;-75
2022/06/21 01:30:43;;;;;;;0.00;0.00;;;;;;;;;;5028348;28;20203;-74
2022/06/21 01:33:11;;;;;;;0.00;0.00;;;;;;;;;;5026147;28;20215;-75
2022/06/21 01:35:41;;;;;;;0.00;0.00;;;;;;;;;;5023769;28;20805;-75
2022/06/21 01:38:11;;;;;;;0.10;0.10;;;;;;;;;;5045256;28;20213;-75
2022/06/21 01:40:42;;;;;;;0.03;0.03;;;;;;;;;;5045710;28;20191;-75
2022/06/21 01:43:11;;;;;;;0.00;0.00;;;;;;;;;;5044718;28;20219;-74
2022/06/21 01:45:41;;;;;;;0.00;0.00;;;;;;;;;;5046792;28;20199;-75
2022/06/21 01:48:11;;;;;;;0.00;0.00;;;;;;;;;;5017851;28;20246;-74
2022/06/21 01:50:40;;;;;;;0.00;0.00;;;;;;;;;;5046296;28;20213;-74
2022/06/21 01:53:09;;;;;;;0.00;0.00;;;;;;;;;;5043385;28;20230;-75
2022/06/21 01:55:40;;;;;;;0.00;0.00;;;;;;;;;;5027738;28;20207;-74
2022/06/21 01:58:11;;;;;;;0.00;0.00;;;;;;;;;;5028255;28;20218;-74
2022/06/21 02:00:42;;;;;;;0.00;0.00;;;;;;;;;;5021783;28;20208;-74
2022/06/21 02:03:13;;;;;;;0.00;0.00;;;;;;;;;;5027829;28;20771;-74
2022/06/21 02:05:42;;;;;;;0.10;0.10;;;;;;;;;;5016234;28;20222;-74
2022/06/21 02:08:12;;;;;;;0.00;0.00;;;;;;;;;;5026674;28;20202;-74
2022/06/21 02:10:42;;;;;;;0.10;0.10;;;;;;;;;;5028089;28;20238;-74
2022/06/21 02:13:13;;;;;;;0.00;0.00;;;;;;;;;;5028429;28;20215;-74
2022/06/21 02:15:44;;;;;;;0.00;0.00;;;;;;;;;;5028928;28;20207;-74
2022/06/21 02:18:12;;;;;;;0.00;0.00;;;;;;;;;;5042383;28;20278;-74
2022/06/21 02:20:43;;;;;;;0.00;0.00;;;;;;;;;;5021016;28;20230;-75
2022/06/21 02:23:12;;;;;;;0.00;0.00;;;;;;;;;;5022771;28;20235;-74
2022/06/21 02:25:41;;;;;;;0.00;0.00;;;;;;;;;;5023143;28;20203;-74
2022/06/21 02:28:09;;;;;;;0.10;0.10;;;;;;;;;;5028415;28;20199;-74
2022/06/21 02:30:37;;;;;;;0.00;0.00;;;;;;;;;;5024624;28;20199;-74
2022/06/21 02:33:08;;;;;;;0.00;0.00;;;;;;;;;;5024414;28;20277;-74
2022/06/21 02:35:39;;;;;;;0.00;0.00;;;;;;;;;;5026639;28;20253;-74
2022/06/21 02:38:07;;;;;;;0.00;0.00;;;;;;;;;;5043172;28;20211;-74
2022/06/21 02:40:36;;;;;;;0.00;0.00;;;;;;;;;;5024862;28;20210;-74
2022/06/21 02:43:06;;;;;;;0.00;0.00;;;;;;;;;;5042895;28;20237;-74
2022/06/21 02:45:35;;;;;;;0.10;0.10;;;;;;;;;;5026605;28;20195;-74
2022/06/21 02:48:05;;;;;;;0.00;0.00;;;;;;;;;;5020672;28;20741;-74
2022/06/21 02:50:37;;;;;;;0.00;0.00;;;;;;;;;;5027203;28;20239;-74
2022/06/21 02:53:07;;;;;;;0.10;0.10;;;;;;;;;;5021757;28;20216;-74
2022/06/21 02:55:38;;;;;;;0.00;0.00;;;;;;;;;;5044774;28;20200;-74
2022/06/21 02:58:08;;;;;;;0.00;0.00;;;;;;;;;;5027687;28;20560;-75
2022/06/21 03:00:35;;;;;;;0.00;0.00;;;;;;;;;;5028009;28;20205;-74
2022/06/21 03:03:05;;;;;;;0.00;0.00;;;;;;;;;;5025956;28;20231;-74
2022/06/21 03:05:35;;;;;;;0.10;0.10;;;;;;;;;;5027256;28;20249;-74
2022/06/21 03:08:05;;;;;;;0.00;0.00;;;;;;;;;;5042313;28;20256;-74
2022/06/21 03:10:34;;;;;;;0.00;0.00;;;;;;;;;;5045379;28;20230;-74
2022/06/21 03:13:03;;;;;;;0.00;0.00;;;;;;;;;;5040545;28;20269;-74
2022/06/21 03:15:31;;;;;;;0.00;0.00;;;;;;;;;;5027503;28;20208;-74
2022/06/21 03:18:00;;;;;;;0.00;0.00;;;;;;;;;;5026661;28;20196;-74
2022/06/21 03:20:28;;;;;;;0.10;0.10;;;;;;;;;;5044586;28;20223;-75
2022/06/21 03:22:56;;;;;;;0.00;0.00;;;;;;;;;;5024884;28;20238;-74
2022/06/21 03:25:25;;;;;;;0.00;0.00;;;;;;;;;;5045455;28;20226;-74
2022/06/21 03:27:55;;;;;;;0.00;0.00;;;;;;;;;;5027263;28;20195;-75
2022/06/21 03:30:25;;;;;;;0.00;0.00;;;;;;;;;;5045081;28;20290;-74
2022/06/21 03:32:54;;;;;;;0.00;0.00;;;;;;;;;;5044948;28;20219;-74
2022/06/21 03:35:21;;;;;;;0.00;0.00;;;;;;;;;;5026450;28;20210;-74
2022/06/21 03:37:49;;;;;;;0.00;0.00;;;;;;;;;;5022893;28;20207;-75
2022/06/21 03:43:07;;;;;;;0.00;0.00;;;;;;;;;;5040115;28;20307;-74
2022/06/21 03:45:37;;;;;;;0.10;0.10;;;;;;;;;;5043280;28;20207;-74
2022/06/21 03:48:09;;;;;;;0.00;0.00;;;;;;;;;;5020275;28;20206;-75
2022/06/21 03:50:38;;;;;;;0.00;0.00;;;;;;;;;;5039867;28;20203;-74
2022/06/21 03:53:10;;;;;;;0.00;0.00;;;;;;;;;;5021405;28;20237;-75
2022/06/21 03:55:41;;;;;;;0.10;0.10;;;;;;;;;;5035259;28;20261;-74
2022/06/21 03:58:11;;;;;;;0.00;0.00;;;;;;;;;;5024215;28;20235;-75
2022/06/21 04:00:43;;;;;;;0.00;0.00;;;;;;;;;;5044567;28;20282;-75
2022/06/21 04:03:13;;;;;;;0.00;0.00;;;;;;;;;;5036289;28;20666;-75
2022/06/21 04:05:42;;;;;;;0.00;0.00;;;;;;;;;;5021226;28;20213;-75
2022/06/21 04:08:28;;;;;;;0.00;0.00;;;;;;;;;;5098303;27;20832;-69
2022/06/21 04:10:58;;;;;;;0.00;0.00;;;;;;;;;;5093335;28;20206;-70
2022/06/21 04:13:28;;;;;;;0.00;0.00;;;;;;;;;;5096265;28;20284;-69
2022/06/21 04:15:59;;;;;;;0.00;0.00;;;;;;;;;;5075913;28;20206;-70
2022/06/21 04:18:31;;;;;;;0.00;0.00;;;;;;;;;;5093242;28;20202;-70
2022/06/21 04:21:03;;;;;;;0.00;0.00;;;;;;;;;;5076709;28;20190;-70
2022/06/21 04:23:35;;;;;;;0.00;0.00;;;;;;;;;;5075130;28;20308;-69
2022/06/21 04:26:05;;;;;;;0.07;0.07;;;;;;;;;;5077890;28;20198;-70
2022/06/21 04:28:35;;;;;;;0.00;0.00;;;;;;;;;;5075733;28;20304;-70
2022/06/21 04:31:05;;;;;;;0.00;0.00;;;;;;;;;;5074196;28;20209;-71
2022/06/21 04:33:34;;;;;;;0.10;0.10;;;;;;;;;;5075034;28;20226;-70
2022/06/21 04:36:04;;;;;;;0.03;0.03;;;;;;;;;;5074207;28;20206;-70
2022/06/21 04:38:36;;;;;;;0.00;0.00;;;;;;;;;;5074705;28;20640;-70
2022/06/21 04:41:06;;;;;;;0.00;0.00;;;;;;;;;;5077688;28;20194;-69
2022/06/21 04:43:38;;;;;;;0.00;0.00;;;;;;;;;;5073732;28;20218;-70
2022/06/21 04:46:07;;;;;;;0.07;0.07;;;;;;;;;;5088938;28;20202;-70
2022/06/21 04:48:37;;;;;;;0.00;0.00;;;;;;;;;;5076348;28;20189;-70
2022/06/21 04:51:09;;;;;;;0.00;0.00;;;;;;;;;;5075504;28;20392;-70
2022/06/21 04:53:42;;;;;;;0.00;0.00;;;;;;;;;;5075915;28;20285;-70
2022/06/21 04:56:14;;;;;;;0.00;0.00;;;;;;;;;;5076446;28;20202;-71
2022/06/21 04:58:42;;;;;;;0.00;0.00;;;;;;;;;;5070255;28;20295;-71
2022/06/21 05:03:52;;;;;;;0.00;0.00;;;;;;;;;;5069853;28;20207;-70
2022/06/21 05:06:19;;;;;;;0.00;0.00;;;;;;;;;;5077418;28;20300;-70
2022/06/21 05:08:49;;;;;;;0.00;0.00;;;;;;;;;;5080442;28;20243;-70
2022/06/21 05:11:16;;;;;;;0.00;0.00;;;;;;;;;;5079550;28;20194;-71
2022/06/21 05:13:45;;;;;;;0.00;0.00;;;;;;;;;;5083743;22;20306;-70
2022/06/21 05:16:18;;;;;;;0.00;0.00;;;;;;;;;;5040926;28;20200;-71
2022/06/21 05:18:47;;;;;;;0.00;0.00;;;;;;;;;;5047840;28;20242;-70
2022/06/21 05:21:16;;;;;;;0.00;0.00;;;;;;;;;;5024220;28;20287;-70
2022/06/21 05:23:45;;;;;;;0.00;0.00;;;;;;;;;;5030735;28;20269;-70
2022/06/21 05:26:19;;;;;;;0.00;0.00;;;;;;;;;;5043623;28;20211;-70
2022/06/21 05:28:51;;;;;;;0.00;0.00;;;;;;;;;;5046153;28;20187;-70
2022/06/21 05:31:23;;;;;;;0.00;0.00;;;;;;;;;;5044641;28;20199;-71
2022/06/21 05:33:52;;;;;;;0.00;0.00;;;;;;;;;;5044519;28;20238;-71
2022/06/21 05:36:22;;;;;;;0.00;0.00;;;;;;;;;;5026960;28;20208;-70
2022/06/21 05:38:51;;;;;;;0.00;0.00;;;;;;;;;;5045753;28;20199;-70
2022/06/21 05:41:30;;;;;;;0.00;0.00;;;;;;;;;;5039592;28;20257;-70
2022/06/21 05:44:00;;;;;;;0.00;0.00;;;;;;;;;;5044427;28;20258;-70
2022/06/21 05:46:29;;;;;;;0.00;0.00;;;;;;;;;;5039521;28;20321;-70
2022/06/21 05:48:57;;;;;;;0.00;0.00;;;;;;;;;;5043885;28;20199;-70
2022/06/21 05:51:26;;;;;;;0.00;0.00;;;;;;;;;;5042652;28;20199;-70
2022/06/21 05:53:56;;;;;;;0.00;0.00;;;;;;;;;;5033461;28;20218;-71
2022/06/21 05:56:25;;;;;;;0.00;0.00;;;;;;;;;;5027822;28;20202;-70
2022/06/21 05:58:54;;;;;;;0.00;0.00;;;;;;;;;;5043560;28;20241;-70
2022/06/21 06:01:23;;;;;;;0.00;0.00;;;;;;;;;;5037127;28;20340;-70
2022/06/21 06:03:54;;;;;;;0.00;0.00;;;;;;;;;;5040330;28;20211;-70
2022/06/21 06:06:22;;;;;;;0.00;0.00;;;;;;;;;;5028174;28;20215;-70
2022/06/21 06:08:52;;;;;;;0.00;0.00;;;;;;;;;;5031736;28;20230;-71
2022/06/21 06:11:22;;;;;;;0.00;0.00;;;;;;;;;;5024415;28;20207;-71
2022/06/21 06:13:56;;;;;;;0.00;0.00;;;18.90;99.90;;;;;;5028747;28;20337;-70
2022/06/21 06:17:07;;;;;;;0.00;0.00;;;20.00;99.90;;;;;;5022714;28;20234;-69
2022/06/21 06:19:44;;;;;;;0.00;0.00;;;20.10;99.90;;;;;;5017217;28;20783;-70
2022/06/21 06:22:18;;;;;;;0.00;0.00;;;20.30;99.90;;;;;;5027297;28;20707;-71
2022/06/21 06:24:50;;;;;;;0.00;0.00;;;;;;;;;;5044512;28;20222;-69
2022/06/21 06:27:26;;;;;;;0.00;0.00;;;;;;;;;;5037211;28;20308;-71
2022/06/21 06:29:55;;;;;;;0.00;0.00;;;;;;;;;;5037578;28;20213;-69
2022/06/21 06:32:24;;;;;;;0.00;0.00;;;;;;;;;;5022638;28;20199;-71
2022/06/21 06:34:53;;;;;;;0.00;0.00;;;;;;;;;;5041032;28;20219;-71
2022/06/21 06:37:25;;;;;;;0.00;0.00;;;;;;;;;;5038369;28;20282;-70
2022/06/21 06:39:52;;;;;;;0.00;0.00;;;;;;;;;;5040842;28;20332;-70
2022/06/21 06:42:21;;;;;;;0.00;0.00;;;;;;;;;;5023512;28;20199;-70
2022/06/21 06:44:50;;;;;;;0.00;0.00;;;;;;;;;;5056825;28;20599;-71
2022/06/21 06:47:20;;;;;;;0.00;0.00;;;;;;;;;;5021987;28;20218;-71
2022/06/21 06:49:50;;;;;;;0.00;0.00;;;;;;;;;;5041788;28;20208;-69
2022/06/21 06:52:20;;;;;;;0.00;0.00;;;;;;;;;;5040728;28;20191;-70
2022/06/21 06:54:50;;;;;;;0.00;0.00;;;;;;;;;;5038981;28;20298;-71
2022/06/21 06:57:21;;;;;;;0.00;0.00;;;;;;;;;;5037158;28;20203;-68
2022/06/21 06:59:49;;;;;;;0.00;0.00;;;;;;;;;;5040057;28;20222;-68
2022/06/21 07:02:21;;;;;;;0.00;0.00;;;;;;;;;;5026181;28;20207;-68
2022/06/21 07:04:53;;;;;;;0.00;0.00;;;;;;;;;;5042712;28;20211;-67
2022/06/21 07:07:22;;;;;;;0.00;0.00;;;;;;;;;;5022470;28;20238;-68
2022/06/21 07:09:52;;;;;;;0.00;0.00;;;;;;;;;;5042123;28;20203;-68
2022/06/21 07:12:20;;;;;;;0.00;0.00;;;;;;;;;;5042730;28;20563;-68
2022/06/21 07:14:49;;;;;;;0.00;0.00;;;21.10;99.90;;;;;;5048899;28;20226;-68
2022/06/21 07:17:20;;;;;;;0.00;0.00;;;;;;;;;;5042542;28;20672;-68
2022/06/21 07:19:47;;;;;;;0.00;0.00;;;;;;;;;;5041995;28;20246;-68
2022/06/21 07:22:18;;;;;;;0.00;0.00;;;22.00;99.90;;;;;;5040311;28;20281;-69
2022/06/21 07:24:48;;;;;;;0.00;0.00;;;;;;;;;;5041943;28;20276;-68
2022/06/21 07:27:16;;;;;;;0.00;0.00;;;;;;;;;;5029559;28;20283;-69
2022/06/21 07:29:48;;;;;;;0.00;0.00;;;;;;;;;;5039351;28;20215;-69
2022/06/21 07:32:17;;;;;;;0.00;0.00;;;;;;;;;;5017453;28;20210;-69
2022/06/21 07:34:47;;;;;;;0.00;0.00;;;;;;;;;;5023417;28;20225;-68
2022/06/21 07:37:16;;;;;;;0.00;0.00;;;;;;;;;;5054670;28;20241;-74
2022/06/21 07:39:47;;;;;;;0.00;0.00;;;;;;;;;;5022646;28;20199;-70
2022/06/21 07:42:17;;;;;;;0.00;0.00;;;;;;;;;;5024425;28;20210;-67
2022/06/21 07:44:46;;;;;;;0.00;0.00;;;;;;;;;;5031512;28;20226;-67
2022/06/21 07:47:17;;;;;;;0.00;0.00;;;;;;;;;;5033829;28;20203;-67
2022/06/21 07:49:48;;;;;;;0.00;0.00;;;;;;;;;;5039572;28;20695;-66
2022/06/21 07:52:26;;;;;;;0.00;0.00;;;;;;;;;;5025761;28;20203;-68
2022/06/21 07:55:17;;;;;;;0.00;0.00;;;;;;;;;;5026171;28;20238;-67
2022/06/21 07:57:48;;;;;;;0.00;0.00;;;;;;;;;;5027849;28;20312;-68
2022/06/21 08:00:16;;;;;;;0.00;0.00;;;;;;;;;;5019946;28;20199;-68
2022/06/21 08:08:18;;;;;;;0.00;0.00;;;;;;;;;;5005761;28;20245;-67
2022/06/21 08:10:48;;;;;;;0.00;0.00;;;;;;;;;;5039219;28;20699;-67
2022/06/21 08:13:16;;;;;;;0.00;0.00;;;;;;;;;;5039413;28;20218;-67
2022/06/21 08:15:44;;;;;;;0.00;0.00;;;;;;;;;;5022454;28;20281;-66
2022/06/21 08:18:14;;;;;;;0.00;0.00;;;;;;;;;;5017636;28;20311;-67
2022/06/21 08:20:44;;;;;;;0.00;0.00;;;;;;;;;;5021746;28;20276;-67
2022/06/21 08:23:15;;;;;;;0.00;0.00;;;;;;;;;;5034400;28;20297;-66
2022/06/21 08:25:47;;;;;;;0.00;0.00;;;;;;;;;;5034264;28;20640;-68
2022/06/21 08:28:16;;;;;;;0.00;0.00;;;;;;;;;;5020305;28;20227;-67
2022/06/21 08:30:46;;;;;;;0.00;0.00;;;;;;;;;;5035698;28;20207;-67
2022/06/21 08:33:15;;;;;;;0.00;0.00;;;;;;;;;;5025944;28;20217;-67
2022/06/21 08:35:47;;;;;;;0.00;0.00;;;;;;;;;;5040726;28;20203;-68
2022/06/21 08:38:16;;;;;;;0.00;0.00;;;;;;;;;;5040159;28;20204;-68
2022/06/21 08:41:51;;;;;;;0.00;0.00;;;;;;;;;;5036116;28;20206;-68
2022/06/21 08:44:11;;;;;;;0.00;0.00;;;;;;;;;;5024332;28;20230;-68
2022/06/21 08:47:05;;;;;;;0.00;0.00;;;;;;;;;;5039708;28;20211;-67
2022/06/21 08:49:43;;;;;;;0.00;0.00;;;;;;;;;;4986017;28;20226;-68
2022/06/21 08:52:20;;;;;;;0.00;0.00;;;;;;;;;;5022487;28;20206;-68
2022/06/21 08:54:56;;;;;;;0.00;0.00;;;;;;;;;;5023042;28;20226;-69
2022/06/21 08:57:31;;;;;;;0.00;0.00;;;;;;;;;;5026277;28;20214;-67
2022/06/21 09:00:04;;;;;;;0.00;0.00;;;;;;;;;;5040468;28;20667;-68
2022/06/21 09:02:38;;;;;;;0.00;0.00;;;;;;;;;;5024303;28;20200;-68
2022/06/21 09:05:11;;;;;;;0.00;0.00;;;;;;;;;;5024675;28;20231;-66
2022/06/21 09:07:58;;;;;;;0.00;0.00;;;;;;;;;;5024641;28;20223;-69
2022/06/21 09:10:47;;;;;;;0.00;0.00;;;;;;;;;;5025351;28;20215;-69
2022/06/21 09:13:25;;;;;;;0.00;0.00;;;;;;;;;;5020009;28;20222;-69
2022/06/21 09:16:02;;;;;;;0.00;0.00;;;22.50;99.90;;;;;;5024123;28;20234;-70
2022/06/21 09:18:44;;;;;;;0.00;0.00;;;24.50;99.90;;;;;;5022303;28;20192;-69
2022/06/21 09:21:22;;;;;;;0.00;0.00;;;24.50;99.90;;;;;;5029107;28;20214;-68
2022/06/21 09:23:58;;;;;;;0.00;0.00;;;24.50;99.90;;;;;;5048674;28;20265;-68
2022/06/21 09:26:34;;;;;;;0.00;0.00;;;24.40;99.90;;;;;;5054633;28;20340;-68
2022/06/21 09:29:13;;;;;;;0.00;0.00;;;24.40;99.90;;;;;;5045125;28;20302;-67
2022/06/21 09:31:51;;;;;;;0.00;0.00;;;24.40;99.90;;;;;;5018684;28;20227;-67
2022/06/21 09:34:26;;;;;;;0.00;0.00;;;24.50;99.90;;;;;;5039507;28;20230;-68
2022/06/21 09:37:01;;;;;;;0.00;0.00;;;24.30;99.90;;;;;;5022057;28;20733;-67
2022/06/21 09:39:33;;;;;;;0.00;0.00;;;24.30;99.90;;;;;;5035424;28;20223;-68
2022/06/21 09:42:07;;;;;;;0.00;0.00;;;24.10;99.90;;;;;;5023416;28;20222;-68
2022/06/21 09:44:42;;;;;;;0.00;0.00;;;24.10;99.90;;;;;;5013507;28;20218;-68
2022/06/21 09:47:17;;;;;;;0.00;0.00;;;24.20;99.90;;;;;;5023193;28;20210;-68
2022/06/21 09:49:50;;;;;;;0.00;0.00;;;24.30;99.90;;;;;;5039769;28;20214;-68
2022/06/21 09:52:30;;;;;;;0.00;0.00;;;24.40;99.90;;;;;;5032609;28;20293;-68
2022/06/21 09:55:08;;;;;;;0.00;0.00;;;24.50;99.90;;;;;;5035054;28;20226;-66
2022/06/21 09:57:42;;;;;;;0.00;0.00;;;24.30;99.90;;;;;;5034464;28;20210;-67
2022/06/21 10:00:16;;;;;;;0.00;0.00;;;24.20;99.90;;;;;;5026814;28;20261;-67
2022/06/21 10:02:58;;;;;;;0.00;0.00;;;24.30;99.90;;;;;;5027942;28;20763;-66
2022/06/21 10:05:31;;;;;;;0.00;0.00;;;24.20;99.90;;;;;;5021374;28;20223;-67
2022/06/21 10:08:24;;;;;;;0.00;0.00;;;24.20;99.90;;;;;;5050826;28;20306;-67
2022/06/21 10:11:04;;;;;;;0.00;0.00;;;24.40;99.90;;;;;;5014178;28;20199;-67
2022/06/21 10:13:44;;;;;;;0.00;0.00;;;24.40;99.90;;;;;;5034679;28;20220;-68
2022/06/21 10:16:40;;;;;;;0.00;0.00;;;24.50;99.90;;;;;;5024387;28;20218;-66
2022/06/21 10:19:24;;;;;;;0.00;0.00;;;24.40;99.90;;;;;;5023065;28;20202;-68
2022/06/21 10:22:17;;;;;;;0.00;0.00;;;24.40;99.90;;;;;;5040631;28;20199;-69
2022/06/21 10:25:03;;;;;;;0.00;0.00;;;24.30;99.90;;;;;;5038644;28;20324;-70
2022/06/21 10:27:52;;;;;;;0.00;0.00;;;24.50;99.90;;;;;;5035224;28;20298;-71
2022/06/21 10:30:39;;;;;;;0.00;0.00;;;24.60;99.90;;;;;;5040274;28;20286;-70
2022/06/21 10:33:27;;;;;;;0.00;0.00;;;24.60;99.90;;;;;;5016235;28;20203;-70
2022/06/21 10:36:13;;;;;;;0.00;0.00;;;24.50;99.90;;;;;;5041235;28;20203;-69
2022/06/21 10:39:04;;;;;;;0.00;0.00;;;24.60;99.90;;;;;;5054459;28;20209;-70
2022/06/21 10:42:46;;;;;;;0.00;0.00;;;24.60;99.90;;;;;;5014347;28;20203;-69
2022/06/21 10:44:57;;;;;;;0.00;0.00;;;24.70;99.90;;;;;;5024330;28;20214;-69
2022/06/21 10:47:36;;;;;;;0.00;0.00;;;24.70;99.90;;;;;;5043590;28;20192;-70
2022/06/21 10:50:15;;;;;;;0.00;0.00;;;24.70;99.90;;;;;;5021449;28;20230;-69
2022/06/21 10:53:02;;;;;;;0.00;0.00;;;24.70;99.90;;;;;;5041206;28;20201;-71
2022/06/21 10:57:09;;;;;;;0.00;0.00;;;24.70;99.90;;;;;;5039259;28;20219;-70
2022/06/21 10:59:06;;;;;;;0.00;0.00;;;24.70;99.90;;;;;;5040000;28;20199;-70
2022/06/21 11:01:44;;;;;;;0.00;0.00;;;24.70;99.90;;;;;;5053612;28;20207;-68
2022/06/21 11:04:36;;;;;;;0.00;0.00;;;24.70;99.90;;;;;;5023343;28;20219;-69
2022/06/21 11:07:11;;;;;;;0.00;0.00;;;24.70;99.90;;;;;;5034528;28;20680;-68
2022/06/21 11:09:46;;;;;;;0.00;0.00;;;24.80;99.90;;;;;;5037333;28;20227;-70
2022/06/21 11:15:19;;;;;;;0.00;0.00;;;25.10;99.90;;;;;;4994711;28;20262;-70
2022/06/21 11:17:58;;;;;;;0.00;0.00;;;25.00;99.90;;;;;;5038382;28;20241;-69
2022/06/21 11:20:33;;;;;;;0.00;0.00;;;24.90;99.90;;;;;;5024115;28;20199;-69
2022/06/21 11:23:14;;;;;;;0.00;0.00;;;24.90;99.90;;;;;;5026360;28;20294;-68
2022/06/21 11:25:49;;;;;;;0.00;0.00;;;24.90;99.90;;;;;;5023100;28;20280;-68
2022/06/21 11:28:31;;;;;;;0.00;0.00;;;24.90;99.90;;;;;;5022074;28;20221;-68
2022/06/21 11:31:05;;;;;;;0.00;0.00;;;24.90;99.90;;;;;;5039347;28;20284;-68
2022/06/21 11:33:42;;;;;;;0.00;0.00;;;25.00;99.90;;;;;;5038579;28;20235;-69
2022/06/21 11:36:12;;;;;;;0.00;0.00;;;;;;;;;;5039774;28;20225;-70
2022/06/21 11:38:48;;;;;;;0.00;0.00;;;;;;;;;;5016891;28;20209;-69
2022/06/21 11:44:07;;;;;;;0.00;0.00;;;;;;;;;;5039426;28;20215;-69
2022/06/21 11:46:35;;;;;;;0.00;0.00;;;;;;;;;;5057420;28;20199;-70
2022/06/21 11:49:25;;;;;;;0.00;0.00;;;;;;;;;;5021700;28;20214;-70
2022/06/21 11:52:15;;;;;;;0.00;0.00;;;;;;;;;;5035209;28;20210;-69
2022/06/21 11:54:44;;;;;;;0.00;0.00;;;;;;;;;;5038323;28;20219;-69
2022/06/21 11:57:15;;;;;;;0.00;0.00;;;;;;;;;;5022008;28;20199;-68
2022/06/21 11:59:46;;;;;;;0.00;0.00;;;;;;;;;;5039058;28;20198;-70
2022/06/21 12:02:18;;;;;;;0.00;0.00;;;;;;;;;;5021032;28;20195;-67
2022/06/21 12:04:50;;;;;;;0.00;0.00;;;;;;;;;;5035661;28;20300;-68
2022/06/21 12:07:20;;;;;;;0.00;0.00;;;;;;;;;;5053811;28;20211;-73
2022/06/21 12:09:53;;;;;;;0.00;0.00;;;;;;;;;;5040544;28;20779;-68
2022/06/21 12:12:37;;;;;;;0.00;0.00;;;;;;;;;;5022167;28;20204;-68
2022/06/21 12:15:18;;;;;;;0.00;0.00;;;;;;;;;;5023793;28;20327;-68
2022/06/21 12:17:51;;;;;;;0.00;0.00;;;25.20;99.90;;;;;;5021673;28;20708;-67
2022/06/21 12:20:24;;;;;;;0.00;0.00;;;25.50;99.90;;;;;;5052008;28;20204;-68
2022/06/21 12:22:56;;;;;;;0.00;0.00;;;25.70;99.90;;;;;;5029031;28;20218;-66
2022/06/21 12:25:23;;;;;;;0.00;0.00;;;;;;;;;;5031478;28;20254;-68
2022/06/21 12:27:52;;;;;;;0.00;0.00;;;;;;;;;;5038835;28;20218;-67
2022/06/21 12:30:22;;;;;;;0.00;0.00;;;25.60;99.90;;;;;;5046436;28;20211;-66
2022/06/21 12:32:56;;;;;;;0.00;0.00;;;25.50;99.90;;;;;;5039597;28;20191;-67
2022/06/21 12:35:44;;;;;;;0.00;0.00;;;25.40;99.90;;;;;;5040946;28;20219;-66
2022/06/21 12:38:14;;;;;;;0.00;0.00;;;25.30;99.90;;;;;;5044681;28;20361;-67
2022/06/21 12:40:51;;;;;;;0.00;0.00;;;25.20;99.90;;;;;;5023618;28;20249;-66
2022/06/21 12:43:43;;;;;;;0.00;0.00;;;25.20;99.90;;;;;;5015688;28;20269;-66
2022/06/21 12:46:17;;;;;;;0.00;0.00;;;25.10;99.90;;;;;;5041678;28;20209;-67
2022/06/21 12:49:09;;;;;;;0.00;0.00;;;25.10;99.90;;;;;;5050385;28;20250;-67
2022/06/21 12:51:47;;;;;;;0.00;0.00;;;25.00;99.90;;;;;;5033633;28;20222;-67
2022/06/21 12:54:34;;;;;;;0.00;0.00;;;25.00;99.90;;;;;;5048147;28;20222;-67
2022/06/21 12:57:18;;;;;;;0.00;0.00;;;24.90;99.90;;;;;;5022823;28;20269;-67
2022/06/21 13:00:03;;;;;;;0.00;0.00;;;24.80;99.90;;;;;;5039727;28;20195;-65
2022/06/21 13:02:54;;;;;;;0.00;0.00;;;24.70;99.90;;;;;;5041148;28;20215;-68
2022/06/21 13:05:37;;;;;;;0.00;0.00;;;24.70;99.90;;;;;;5039894;28;20227;-66
2022/06/21 13:08:44;;;;;;;0.00;0.00;;;24.70;99.90;;;;;;5024790;28;20271;-67
2022/06/21 13:11:27;;;;;;;0.00;0.00;;;24.70;99.90;;;;;;5034557;28;20199;-67
2022/06/21 13:14:18;;;;;;;0.00;0.00;;;24.80;99.90;;;;;;5034653;28;20231;-67
2022/06/21 13:16:57;;;;;;;0.00;0.00;;;24.80;99.90;;;;;;5053188;28;20333;-68
2022/06/21 13:19:42;;;;;;;0.00;0.00;;;24.70;99.90;;;;;;5042308;28;20203;-68
2022/06/21 13:22:31;;;;;;;0.00;0.00;;;24.60;99.90;;;;;;5021467;28;20191;-68
2022/06/21 13:25:13;;;;;;;0.00;0.00;;;24.60;99.90;;;;;;5037298;28;20219;-68
2022/06/21 13:27:56;;;;;;;0.00;0.00;;;24.60;99.90;;;;;;5038183;28;20226;-68
2022/06/21 13:30:38;;;;;;;0.00;0.00;;;24.60;99.90;;;;;;5041057;28;20553;-68
2022/06/21 13:33:13;;;;;;;0.00;0.00;;;24.50;99.90;;;;;;5035239;28;20286;-69
2022/06/21 13:35:57;;;;;;;0.00;0.00;;;24.50;99.90;;;;;;5039696;28;20237;-68
2022/06/21 13:38:37;;;;;;;0.00;0.00;;;24.40;99.90;;;;;;5039673;28;20274;-68
2022/06/21 13:42:37;;;;;;;0.00;0.00;;;24.40;99.90;;;;;;5037843;28;20198;-68
2022/06/21 13:44:08;;;;;;;0.00;0.00;;;24.40;99.90;;;;;;5021948;28;20269;-69
2022/06/21 13:46:46;;;;;;;0.00;0.00;;;24.40;99.90;;;;;;5042947;28;20195;-68
2022/06/21 13:49:23;;;;;;;0.00;0.00;;;24.40;99.90;;;;;;5050539;28;20226;-68
2022/06/21 13:51:57;;;;;;;0.00;0.00;;;24.40;99.90;;;;;;5039152;28;20199;-68
2022/06/21 13:54:30;;;;;;;0.00;0.00;;;24.50;99.90;;;;;;5029929;28;20247;-69
2022/06/21 13:57:06;;;;;;;0.00;0.00;;;24.40;99.90;;;;;;5038848;28;20253;-68
2022/06/21 13:59:40;;;;;;;0.00;0.00;;;24.50;99.90;;;;;;5041222;28;20286;-67
2022/06/21 14:02:14;;;;;;;0.00;0.00;;;24.30;99.90;;;;;;5015132;28;20294;-68
2022/06/21 14:04:53;;;;;;;0.00;0.00;;;24.30;99.90;;;;;;5022075;28;20321;-67
2022/06/21 14:07:31;;;;;;;0.00;0.00;;;24.40;99.90;;;;;;5042314;28;20209;-67
2022/06/21 14:10:08;;;;;;;0.00;0.00;;;24.40;99.90;;;;;;5025094;28;20234;-68
2022/06/21 14:12:45;;;;;;;0.00;0.00;;;24.40;99.90;;;;;;5042550;28;20226;-67
2022/06/21 14:15:20;;;;;;;0.00;0.00;;;24.30;99.90;;;;;;5021462;28;20246;-65
2022/06/21 14:17:52;;;;;;;0.00;0.00;;;24.30;99.90;;;;;;5025582;28;20210;-69
2022/06/21 14:20:27;;;;;;;0.00;0.00;;;24.20;99.90;;;;;;5042461;28;20197;-68
2022/06/21 14:23:06;;;;;;;0.00;0.00;;;24.20;99.90;;;;;;5040567;28;20310;-68
2022/06/21 14:25:39;;;;;;;0.00;0.00;;;24.20;99.90;;;;;;5034168;28;20199;-68
2022/06/21 14:28:10;;;;;;;0.00;0.00;;;24.30;99.90;;;;;;5058912;28;20205;-69
2022/06/21 14:30:47;;;;;;;0.00;0.00;;;24.20;99.90;;;;;;5036313;28;20245;-69
2022/06/21 14:33:27;;;;;;;0.00;0.00;;;24.20;99.90;;;;;;5043200;28;20203;-70
2022/06/21 14:35:59;;;;;;;0.00;0.00;;;24.30;99.90;;;;;;5018834;28;20269;-66
2022/06/21 14:38:37;;;;;;;0.00;0.00;;;24.30;99.90;;;;;;5019242;28;20216;-68
2022/06/21 14:41:09;;;;;;;0.00;0.00;;;24.30;99.90;;;;;;5036675;28;20183;-67
2022/06/21 14:43:42;;;;;;;0.00;0.00;;;24.30;99.90;;;;;;5018914;28;20330;-67
2022/06/21 14:46:19;;;;;;;0.00;0.00;;;24.30;99.90;;;;;;5051715;28;20203;-68
2022/06/21 14:48:52;;;;;;;0.00;0.00;;;24.30;99.90;;;;;;5038986;28;20202;-68
2022/06/21 14:51:28;;;;;;;0.00;0.00;;;24.30;99.90;;;;;;5038070;28;20246;-65
2022/06/21 14:54:21;;;;;;;0.00;0.00;;;24.40;99.90;;;;;;5041833;28;20214;-67